sensor_id;sensor_type;location;lat;lon;timestamp;pressure;altitude;pressure_sealevel;temperature;humidity
45621;BME280;31345;51.522;10.702;2023-05-20T00:00:17;99864.25;;;11.76;99.76
45621;BME280;31345;51.522;10.702;2023-05-20T00:02:51;99858.56;;;11.83;98.84
45621;BME280;31345;51.522;10.702;2023-05-20T00:05:23;99857.69;;;11.83;98.69
45621;BME280;31345;51.522;10.702;2023-05-20T00:07:51;99862.94;;;11.83;98.01
45621;BME280;31345;51.522;10.702;2023-05-20T00:10:23;99858.09;;;11.77;99.94
45621;BME280;31345;51.522;10.702;2023-05-20T00:12:51;99859.03;;;11.76;99.34
45621;BME280;31345;51.522;10.702;2023-05-20T00:15:23;99857.91;;;11.80;98.36
45621;BME280;31345;51.522;10.702;2023-05-20T00:17:59;99854.50;;;11.78;99.02
45621;BME280;31345;51.522;10.702;2023-05-20T00:20:27;99851.72;;;11.81;99.24
45621;BME280;31345;51.522;10.702;2023-05-20T00:22:54;99849.84;;;11.83;98.13
45621;BME280;31345;51.522;10.702;2023-05-20T00:25:22;99845.19;;;11.88;97.25
45621;BME280;31345;51.522;10.702;2023-05-20T00:27:49;99848.06;;;11.83;98.28
45621;BME280;31345;51.522;10.702;2023-05-20T00:30:22;99840.97;;;11.86;98.08
45621;BME280;31345;51.522;10.702;2023-05-20T00:32:54;99844.81;;;11.80;98.96
45621;BME280;31345;51.522;10.702;2023-05-20T00:35:23;99841.72;;;11.88;98.67
45621;BME280;31345;51.522;10.702;2023-05-20T00:37:56;99843.59;;;11.86;98.93
45621;BME280;31345;51.522;10.702;2023-05-20T00:40:28;99836.75;;;11.83;99.00
45621;BME280;31345;51.522;10.702;2023-05-20T00:43:01;99838.97;;;11.75;99.92
45621;BME280;31345;51.522;10.702;2023-05-20T00:45:29;99839.06;;;11.73;100.00
45621;BME280;31345;51.522;10.702;2023-05-20T00:48:06;99829.91;;;11.80;99.09
45621;BME280;31345;51.522;10.702;2023-05-20T00:50:41;99833.81;;;11.73;100.00
45621;BME280;31345;51.522;10.702;2023-05-20T00:53:15;99826.81;;;11.74;99.52
45621;BME280;31345;51.522;10.702;2023-05-20T00:55:43;99824.66;;;11.80;98.40
45621;BME280;31345;51.522;10.702;2023-05-20T00:58:16;99827.03;;;11.85;97.97
45621;BME280;31345;51.522;10.702;2023-05-20T01:00:48;99833.47;;;11.79;100.00
45621;BME280;31345;51.522;10.702;2023-05-20T01:03:21;99831.72;;;11.80;99.37
45621;BME280;31345;51.522;10.702;2023-05-20T01:05:55;99832.75;;;11.77;100.00
45621;BME280;31345;51.522;10.702;2023-05-20T01:08:28;99826.81;;;11.74;100.00
45621;BME280;31345;51.522;10.702;2023-05-20T01:10:58;99828.00;;;11.68;100.00
45621;BME280;31345;51.522;10.702;2023-05-20T01:13:32;99814.56;;;11.74;100.00
45621;BME280;31345;51.522;10.702;2023-05-20T01:16:02;99818.69;;;11.78;100.00
45621;BME280;31345;51.522;10.702;2023-05-20T01:18:31;99816.16;;;11.77;100.00
45621;BME280;31345;51.522;10.702;2023-05-20T01:21:07;99818.59;;;11.80;100.00
45621;BME280;31345;51.522;10.702;2023-05-20T01:23:38;99814.00;;;11.83;100.00
45621;BME280;31345;51.522;10.702;2023-05-20T01:26:08;99808.03;;;11.81;100.00
45621;BME280;31345;51.522;10.702;2023-05-20T01:28:43;99805.69;;;11.77;100.00
45621;BME280;31345;51.522;10.702;2023-05-20T01:31:22;99809.25;;;11.90;99.24
45621;BME280;31345;51.522;10.702;2023-05-20T01:33:55;99817.84;;;11.78;100.00
45621;BME280;31345;51.522;10.702;2023-05-20T01:36:24;99818.69;;;11.78;100.00
45621;BME280;31345;51.522;10.702;2023-05-20T01:38:59;99815.41;;;11.75;100.00
45621;BME280;31345;51.522;10.702;2023-05-20T01:41:34;99808.56;;;11.72;100.00
45621;BME280;31345;51.522;10.702;2023-05-20T01:44:03;99808.66;;;11.70;100.00
45621;BME280;31345;51.522;10.702;2023-05-20T01:46:31;99800.44;;;11.77;100.00
45621;BME280;31345;51.522;10.702;2023-05-20T01:49:04;99804.75;;;11.78;100.00
45621;BME280;31345;51.522;10.702;2023-05-20T01:51:37;99810.75;;;11.80;100.00
45621;BME280;31345;51.522;10.702;2023-05-20T01:54:11;99809.50;;;11.71;100.00
45621;BME280;31345;51.522;10.702;2023-05-20T01:56:38;99803.78;;;11.64;100.00
45621;BME280;31345;51.522;10.702;2023-05-20T01:59:06;99798.19;;;11.70;100.00
45621;BME280;31345;51.522;10.702;2023-05-20T02:01:33;99797.06;;;11.60;100.00
45621;BME280;31345;51.522;10.702;2023-05-20T02:04:06;99799.66;;;11.60;100.00
45621;BME280;31345;51.522;10.702;2023-05-20T02:06:38;99791.13;;;11.56;100.00
45621;BME280;31345;51.522;10.702;2023-05-20T02:09:12;99786.28;;;11.50;100.00
45621;BME280;31345;51.522;10.702;2023-05-20T02:11:45;99781.69;;;11.54;100.00
45621;BME280;31345;51.522;10.702;2023-05-20T02:14:13;99775.94;;;11.63;100.00
45621;BME280;31345;51.522;10.702;2023-05-20T02:16:45;99774.97;;;11.64;100.00
45621;BME280;31345;51.522;10.702;2023-05-20T02:19:21;99775.94;;;11.63;100.00
45621;BME280;31345;51.522;10.702;2023-05-20T02:21:50;99777.97;;;11.73;100.00
45621;BME280;31345;51.522;10.702;2023-05-20T02:24:19;99794.44;;;11.75;100.00
45621;BME280;31345;51.522;10.702;2023-05-20T02:26:52;99792.41;;;11.80;100.00
45621;BME280;31345;51.522;10.702;2023-05-20T02:29:20;99799.50;;;11.78;100.00
45621;BME280;31345;51.522;10.702;2023-05-20T02:31:54;99797.56;;;11.81;100.00
45621;BME280;31345;51.522;10.702;2023-05-20T02:34:21;99795.22;;;11.91;100.00
45621;BME280;31345;51.522;10.702;2023-05-20T02:36:55;99789.22;;;11.89;100.00
45621;BME280;31345;51.522;10.702;2023-05-20T02:39:29;99790.16;;;11.88;100.00
45621;BME280;31345;51.522;10.702;2023-05-20T02:42:02;99797.09;;;11.89;100.00
45621;BME280;31345;51.522;10.702;2023-05-20T02:44:30;99785.56;;;11.92;100.00
45621;BME280;31345;51.522;10.702;2023-05-20T02:47:02;99788.91;;;11.95;100.00
45621;BME280;31345;51.522;10.702;2023-05-20T02:49:30;99787.19;;;11.94;100.00
45621;BME280;31345;51.522;10.702;2023-05-20T02:51:57;99800.75;;;12.01;99.72
45621;BME280;31345;51.522;10.702;2023-05-20T02:54:31;99799.44;;;11.94;100.00
45621;BME280;31345;51.522;10.702;2023-05-20T02:57:04;99800.22;;;11.96;100.00
45621;BME280;31345;51.522;10.702;2023-05-20T02:59:32;99806.94;;;12.00;99.90
45621;BME280;31345;51.522;10.702;2023-05-20T03:02:04;99807.81;;;12.01;99.89
45621;BME280;31345;51.522;10.702;2023-05-20T03:04:36;99797.59;;;11.96;99.74
45621;BME280;31345;51.522;10.702;2023-05-20T03:07:06;99799.25;;;11.97;99.42
45621;BME280;31345;51.522;10.702;2023-05-20T03:09:35;99792.44;;;11.94;100.00
45621;BME280;31345;51.522;10.702;2023-05-20T03:12:07;99790.25;;;11.87;100.00
45621;BME280;31345;51.522;10.702;2023-05-20T03:14:35;99788.59;;;11.86;100.00
45621;BME280;31345;51.522;10.702;2023-05-20T03:17:07;99789.78;;;11.80;100.00
45621;BME280;31345;51.522;10.702;2023-05-20T03:19:40;99787.25;;;11.78;100.00
45621;BME280;31345;51.522;10.702;2023-05-20T03:22:12;99789.03;;;11.78;100.00
45621;BME280;31345;51.522;10.702;2023-05-20T03:24:47;99794.81;;;11.83;100.00
45621;BME280;31345;51.522;10.702;2023-05-20T03:27:19;99798.38;;;11.82;100.00
45621;BME280;31345;51.522;10.702;2023-05-20T03:29:52;99804.56;;;11.81;100.00
45621;BME280;31345;51.522;10.702;2023-05-20T03:32:20;99803.63;;;11.82;100.00
45621;BME280;31345;51.522;10.702;2023-05-20T03:34:48;99800.28;;;11.80;100.00
45621;BME280;31345;51.522;10.702;2023-05-20T03:37:15;99798.69;;;11.77;100.00
45621;BME280;31345;51.522;10.702;2023-05-20T03:39:49;99797.81;;;11.77;100.00
45621;BME280;31345;51.522;10.702;2023-05-20T03:42:22;99803.72;;;11.80;100.00
45621;BME280;31345;51.522;10.702;2023-05-20T03:44:54;99803.91;;;11.77;100.00
45621;BME280;31345;51.522;10.702;2023-05-20T03:47:27;99810.66;;;11.81;100.00
45621;BME280;31345;51.522;10.702;2023-05-20T03:50:00;99814.50;;;11.76;100.00
45621;BME280;31345;51.522;10.702;2023-05-20T03:52:28;99816.81;;;11.80;100.00
45621;BME280;31345;51.522;10.702;2023-05-20T03:54:57;99817.28;;;11.73;100.00
45621;BME280;31345;51.522;10.702;2023-05-20T03:57:30;99813.72;;;11.74;100.00
45621;BME280;31345;51.522;10.702;2023-05-20T03:59:57;99821.13;;;11.81;100.00
45621;BME280;31345;51.522;10.702;2023-05-20T04:02:34;99815.03;;;11.81;100.00
45621;BME280;31345;51.522;10.702;2023-05-20T04:05:02;99808.13;;;11.80;100.00
45621;BME280;31345;51.522;10.702;2023-05-20T04:07:35;99813.16;;;11.83;100.00
45621;BME280;31345;51.522;10.702;2023-05-20T04:10:10;99811.47;;;11.82;100.00
45621;BME280;31345;51.522;10.702;2023-05-20T04:12:42;99807.91;;;11.83;100.00
45621;BME280;31345;51.522;10.702;2023-05-20T04:15:11;99804.56;;;11.81;100.00
45621;BME280;31345;51.522;10.702;2023-05-20T04:17:53;99813.53;;;11.77;100.00
45621;BME280;31345;51.522;10.702;2023-05-20T04:20:21;99804.00;;;11.76;100.00
45621;BME280;31345;51.522;10.702;2023-05-20T04:22:55;99807.91;;;11.83;100.00
45621;BME280;31345;51.522;10.702;2023-05-20T04:25:24;99808.44;;;11.90;100.00
45621;BME280;31345;51.522;10.702;2023-05-20T04:27:58;99802.00;;;11.95;100.00
45621;BME280;31345;51.522;10.702;2023-05-20T04:30:31;99806.78;;;12.03;100.00
45621;BME280;31345;51.522;10.702;2023-05-20T04:33:05;99802.94;;;12.09;100.00
45621;BME280;31345;51.522;10.702;2023-05-20T04:35:38;99802.94;;;12.09;100.00
45621;BME280;31345;51.522;10.702;2023-05-20T04:38:13;99796.84;;;12.23;100.00
45621;BME280;31345;51.522;10.702;2023-05-20T04:40:47;99796.94;;;12.21;100.00
45621;BME280;31345;51.522;10.702;2023-05-20T04:43:15;99799.66;;;12.20;100.00
45621;BME280;31345;51.522;10.702;2023-05-20T04:45:47;99800.69;;;12.32;100.00
45621;BME280;31345;51.522;10.702;2023-05-20T04:48:20;99788.50;;;12.31;100.00
45621;BME280;31345;51.522;10.702;2023-05-20T04:50:53;99794.50;;;12.33;100.00
45621;BME280;31345;51.522;10.702;2023-05-20T04:53:20;99799.25;;;12.41;100.00
45621;BME280;31345;51.522;10.702;2023-05-20T04:55:55;99793.75;;;12.31;100.00
45621;BME280;31345;51.522;10.702;2023-05-20T04:58:28;99792.91;;;12.30;100.00
45621;BME280;31345;51.522;10.702;2023-05-20T05:00:56;99790.94;;;12.34;100.00
45621;BME280;31345;51.522;10.702;2023-05-20T05:03:30;99794.03;;;12.26;100.00
45621;BME280;31345;51.522;10.702;2023-05-20T05:06:03;99793.28;;;12.39;100.00
45621;BME280;31345;51.522;10.702;2023-05-20T05:08:35;99793.19;;;12.40;100.00
45621;BME280;31345;51.522;10.702;2023-05-20T05:11:05;99788.69;;;12.42;100.00
45621;BME280;31345;51.522;10.702;2023-05-20T05:13:38;99795.81;;;12.40;100.00
45621;BME280;31345;51.522;10.702;2023-05-20T05:16:11;99794.09;;;12.39;100.00
45621;BME280;31345;51.522;10.702;2023-05-20T05:18:43;99800.78;;;12.30;100.00
45621;BME280;31345;51.522;10.702;2023-05-20T05:21:15;99797.50;;;12.41;100.00
45621;BME280;31345;51.522;10.702;2023-05-20T05:23:51;99809.69;;;12.28;100.00
45621;BME280;31345;51.522;10.702;2023-05-20T05:26:28;99806.22;;;12.27;100.00
45621;BME280;31345;51.522;10.702;2023-05-20T05:28:56;99794.97;;;12.25;100.00
45621;BME280;31345;51.522;10.702;2023-05-20T05:31:28;99795.34;;;12.33;100.00
45621;BME280;31345;51.522;10.702;2023-05-20T05:34:01;99799.16;;;12.42;100.00
45621;BME280;31345;51.522;10.702;2023-05-20T05:36:32;99797.13;;;12.48;100.00
45621;BME280;31345;51.522;10.702;2023-05-20T05:39:05;99803.84;;;12.52;100.00
45621;BME280;31345;51.522;10.702;2023-05-20T05:41:36;99808.69;;;12.58;100.00
45621;BME280;31345;51.522;10.702;2023-05-20T05:44:09;99800.66;;;12.46;100.00
45621;BME280;31345;51.522;10.702;2023-05-20T05:46:37;99804.59;;;12.39;100.00
45621;BME280;31345;51.522;10.702;2023-05-20T05:49:09;99806.03;;;12.30;100.00
45621;BME280;31345;51.522;10.702;2023-05-20T05:51:41;99803.78;;;12.24;100.00
45621;BME280;31345;51.522;10.702;2023-05-20T05:54:09;99798.97;;;12.31;100.00
45621;BME280;31345;51.522;10.702;2023-05-20T05:56:38;99807.69;;;12.31;100.00
45621;BME280;31345;51.522;10.702;2023-05-20T05:59:11;99805.19;;;12.30;100.00
45621;BME280;31345;51.522;10.702;2023-05-20T06:01:46;99805.63;;;12.37;100.00
45621;BME280;31345;51.522;10.702;2023-05-20T06:04:19;99810.78;;;12.38;100.00
45621;BME280;31345;51.522;10.702;2023-05-20T06:07:32;99798.72;;;12.36;100.00
45621;BME280;31345;51.522;10.702;2023-05-20T06:11:13;99797.00;;;12.49;100.00
45621;BME280;31345;51.522;10.702;2023-05-20T06:22:46;99805.00;;;12.48;100.00
45621;BME280;31345;51.522;10.702;2023-05-20T06:26:06;99794.78;;;12.43;100.00
45621;BME280;31345;51.522;10.702;2023-05-20T06:29:28;99797.06;;;12.62;100.00
45621;BME280;31345;51.522;10.702;2023-05-20T06:33:58;99792.44;;;12.80;100.00
45621;BME280;31345;51.522;10.702;2023-05-20T06:40:12;99789.59;;;12.98;100.00
45621;BME280;31345;51.522;10.702;2023-05-20T06:44:07;99797.72;;;13.08;100.00
45621;BME280;31345;51.522;10.702;2023-05-20T06:47:43;99800.72;;;13.02;100.00
45621;BME280;31345;51.522;10.702;2023-05-20T06:50:16;99793.47;;;13.05;100.00
45621;BME280;31345;51.522;10.702;2023-05-20T06:52:49;99794.41;;;13.04;100.00
45621;BME280;31345;51.522;10.702;2023-05-20T06:55:23;99784.69;;;13.06;100.00
45621;BME280;31345;51.522;10.702;2023-05-20T06:57:52;99782.88;;;13.07;100.00
45621;BME280;31345;51.522;10.702;2023-05-20T07:00:20;99778.78;;;13.03;100.00
45621;BME280;31345;51.522;10.702;2023-05-20T07:02:48;99769.41;;;12.98;100.00
45621;BME280;31345;51.522;10.702;2023-05-20T07:05:16;99767.63;;;12.99;100.00
45621;BME280;31345;51.522;10.702;2023-05-20T07:07:50;99764.72;;;13.04;100.00
45621;BME280;31345;51.522;10.702;2023-05-20T07:10:24;99769.16;;;13.16;100.00
45621;BME280;31345;51.522;10.702;2023-05-20T07:12:57;99764.84;;;13.15;100.00
45621;BME280;31345;51.522;10.702;2023-05-20T07:15:25;99762.56;;;13.36;99.38
45621;BME280;31345;51.522;10.702;2023-05-20T07:17:58;99766.19;;;13.48;100.00
45621;BME280;31345;51.522;10.702;2023-05-20T07:20:26;99749.25;;;13.53;98.64
45621;BME280;31345;51.522;10.702;2023-05-20T07:23:00;99758.44;;;13.73;99.25
45621;BME280;31345;51.522;10.702;2023-05-20T07:25:40;99756.09;;;14.07;98.16
45621;BME280;31345;51.522;10.702;2023-05-20T07:28:15;99747.06;;;14.11;96.48
45621;BME280;31345;51.522;10.702;2023-05-20T07:30:43;99746.78;;;14.40;97.86
45621;BME280;31345;51.522;10.702;2023-05-20T07:33:22;99756.13;;;14.45;95.59
45621;BME280;31345;51.522;10.702;2023-05-20T07:35:54;99757.84;;;14.33;97.52
45621;BME280;31345;51.522;10.702;2023-05-20T07:38:27;99747.97;;;14.23;95.83
45621;BME280;31345;51.522;10.702;2023-05-20T07:41:07;99745.16;;;14.13;96.53
45621;BME280;31345;51.522;10.702;2023-05-20T07:43:39;99748.63;;;14.14;95.98
45621;BME280;31345;51.522;10.702;2023-05-20T07:46:12;99742.41;;;14.15;95.86
45621;BME280;31345;51.522;10.702;2023-05-20T07:48:42;99745.50;;;14.09;96.94
45621;BME280;31345;51.522;10.702;2023-05-20T07:51:10;99743.91;;;14.06;97.08
45621;BME280;31345;51.522;10.702;2023-05-20T07:53:42;99748.38;;;13.80;95.41
45621;BME280;31345;51.522;10.702;2023-05-20T07:56:12;99742.22;;;13.53;97.38
45621;BME280;31345;51.522;10.702;2023-05-20T07:58:51;99743.84;;;13.56;99.09
45621;BME280;31345;51.522;10.702;2023-05-20T08:01:24;99742.53;;;13.48;100.00
45621;BME280;31345;51.522;10.702;2023-05-20T08:03:57;99748.31;;;13.54;100.00
45621;BME280;31345;51.522;10.702;2023-05-20T08:06:30;99744.72;;;13.55;100.00
45621;BME280;31345;51.522;10.702;2023-05-20T08:08:58;99741.00;;;13.72;100.00
45621;BME280;31345;51.522;10.702;2023-05-20T08:11:34;99744.66;;;13.95;100.00
45621;BME280;31345;51.522;10.702;2023-05-20T08:14:07;99728.34;;;14.03;97.18
45621;BME280;31345;51.522;10.702;2023-05-20T08:16:41;99730.28;;;13.88;97.59
45621;BME280;31345;51.522;10.702;2023-05-20T08:19:14;99727.31;;;13.93;97.96
45621;BME280;31345;51.522;10.702;2023-05-20T08:21:41;99731.69;;;14.18;97.77
45621;BME280;31345;51.522;10.702;2023-05-20T08:24:14;99729.25;;;14.28;99.16
45621;BME280;31345;51.522;10.702;2023-05-20T08:26:44;99727.56;;;14.27;98.23
45621;BME280;31345;51.522;10.702;2023-05-20T08:29:11;99716.16;;;14.02;96.02
45621;BME280;31345;51.522;10.702;2023-05-20T08:31:39;99717.56;;;14.19;98.99
45621;BME280;31345;51.522;10.702;2023-05-20T08:34:11;99725.53;;;14.31;97.73
45621;BME280;31345;51.522;10.702;2023-05-20T08:36:44;99720.81;;;14.36;98.33
45621;BME280;31345;51.522;10.702;2023-05-20T08:39:17;99728.16;;;14.44;97.49
45621;BME280;31345;51.522;10.702;2023-05-20T08:41:47;99726.75;;;14.13;95.61
45621;BME280;31345;51.522;10.702;2023-05-20T08:44:16;99725.47;;;14.19;96.92
45621;BME280;31345;51.522;10.702;2023-05-20T08:46:51;99730.78;;;14.06;95.98
45621;BME280;31345;51.522;10.702;2023-05-20T08:49:19;99732.66;;;13.91;98.24
45621;BME280;31345;51.522;10.702;2023-05-20T08:51:52;99739.38;;;13.95;99.68
45621;BME280;31345;51.522;10.702;2023-05-20T08:54:20;99735.53;;;13.88;96.74
45621;BME280;31345;51.522;10.702;2023-05-20T08:56:55;99738.06;;;13.90;98.17
45621;BME280;31345;51.522;10.702;2023-05-20T08:59:29;99732.81;;;13.90;98.11
45621;BME280;31345;51.522;10.702;2023-05-20T09:02:02;99725.53;;;13.93;97.27
45621;BME280;31345;51.522;10.702;2023-05-20T09:04:36;99722.59;;;13.98;98.78
45621;BME280;31345;51.522;10.702;2023-05-20T09:07:04;99716.13;;;14.15;96.74
45621;BME280;31345;51.522;10.702;2023-05-20T09:09:36;99715.91;;;14.18;96.85
45621;BME280;31345;51.522;10.702;2023-05-20T09:12:10;99722.31;;;14.27;100.00
45621;BME280;31345;51.522;10.702;2023-05-20T09:14:42;99720.28;;;14.31;97.29
45621;BME280;31345;51.522;10.702;2023-05-20T09:17:15;99724.28;;;14.36;100.00
45621;BME280;31345;51.522;10.702;2023-05-20T09:19:48;99718.69;;;14.41;97.61
45621;BME280;31345;51.522;10.702;2023-05-20T09:22:21;99712.25;;;14.45;97.86
45621;BME280;31345;51.522;10.702;2023-05-20T09:24:54;99709.34;;;14.37;96.25
45621;BME280;31345;51.522;10.702;2023-05-20T09:27:28;99720.41;;;14.29;98.71
45621;BME280;31345;51.522;10.702;2023-05-20T09:30:05;99704.31;;;14.21;98.16
45621;BME280;31345;51.522;10.702;2023-05-20T09:32:33;99712.88;;;14.11;97.29
45621;BME280;31345;51.522;10.702;2023-05-20T09:35:01;99705.31;;;14.07;98.07
45621;BME280;31345;51.522;10.702;2023-05-20T09:37:36;99708.88;;;14.19;98.43
45621;BME280;31345;51.522;10.702;2023-05-20T09:40:06;99707.69;;;14.23;98.31
45621;BME280;31345;51.522;10.702;2023-05-20T09:42:47;99702.41;;;14.36;98.09
45621;BME280;31345;51.522;10.702;2023-05-20T09:45:16;99702.91;;;14.41;98.73
45621;BME280;31345;51.522;10.702;2023-05-20T09:47:50;99693.25;;;14.53;97.80
45621;BME280;31345;51.522;10.702;2023-05-20T09:50:23;99694.66;;;14.70;99.86
45621;BME280;31345;51.522;10.702;2023-05-20T09:52:52;99694.44;;;14.73;96.41
45621;BME280;31345;51.522;10.702;2023-05-20T09:55:25;99695.91;;;14.77;96.68
45621;BME280;31345;51.522;10.702;2023-05-20T09:58:01;99690.84;;;14.74;96.22
45621;BME280;31345;51.522;10.702;2023-05-20T10:00:34;99690.59;;;14.66;96.13
45621;BME280;31345;51.522;10.702;2023-05-20T10:03:01;99692.66;;;14.49;97.54
45621;BME280;31345;51.522;10.702;2023-05-20T10:05:36;99694.22;;;14.52;98.63
45621;BME280;31345;51.522;10.702;2023-05-20T10:08:39;99698.22;;;14.58;97.72
45621;BME280;31345;51.522;10.702;2023-05-20T10:11:20;99693.63;;;14.48;94.91
45621;BME280;31345;51.522;10.702;2023-05-20T10:14:13;99691.16;;;14.58;95.62
45621;BME280;31345;51.522;10.702;2023-05-20T10:16:52;99699.34;;;14.66;97.79
45621;BME280;31345;51.522;10.702;2023-05-20T10:19:27;99682.97;;;14.74;98.10
45621;BME280;31345;51.522;10.702;2023-05-20T10:22:02;99682.16;;;14.85;96.36
45621;BME280;31345;51.522;10.702;2023-05-20T10:24:36;99679.41;;;15.11;97.15
45621;BME280;31345;51.522;10.702;2023-05-20T10:27:12;99665.38;;;15.11;94.67
45621;BME280;31345;51.522;10.702;2023-05-20T10:29:49;99675.13;;;15.33;96.81
45621;BME280;31345;51.522;10.702;2023-05-20T10:32:23;99663.03;;;15.30;91.30
45621;BME280;31345;51.522;10.702;2023-05-20T10:34:51;99669.88;;;15.45;97.38
45621;BME280;31345;51.522;10.702;2023-05-20T10:37:27;99658.78;;;15.64;92.34
45621;BME280;31345;51.522;10.702;2023-05-20T10:40:07;99655.75;;;15.80;92.69
45621;BME280;31345;51.522;10.702;2023-05-20T10:42:41;99658.25;;;15.93;90.34
45621;BME280;31345;51.522;10.702;2023-05-20T10:45:26;99651.47;;;16.23;92.19
45621;BME280;31345;51.522;10.702;2023-05-20T10:47:59;99641.06;;;16.33;89.96
45621;BME280;31345;51.522;10.702;2023-05-20T10:50:33;99634.56;;;16.70;89.98
45621;BME280;31345;51.522;10.702;2023-05-20T10:53:11;99635.03;;;16.42;86.16
45621;BME280;31345;51.522;10.702;2023-05-20T10:55:47;99634.03;;;16.55;86.76
45621;BME280;31345;51.522;10.702;2023-05-20T10:58:22;99622.06;;;17.15;84.37
45621;BME280;31345;51.522;10.702;2023-05-20T11:00:53;99626.56;;;17.55;89.87
45621;BME280;31345;51.522;10.702;2023-05-20T11:03:26;99612.47;;;17.14;82.06
45621;BME280;31345;51.522;10.702;2023-05-20T11:05:58;99603.81;;;17.43;83.74
45621;BME280;31345;51.522;10.702;2023-05-20T11:08:31;99605.88;;;17.60;85.53
45621;BME280;31345;51.522;10.702;2023-05-20T11:11:04;99610.09;;;17.73;85.19
45621;BME280;31345;51.522;10.702;2023-05-20T11:13:37;99605.50;;;17.85;80.81
45621;BME280;31345;51.522;10.702;2023-05-20T11:16:11;99602.25;;;18.12;84.87
45621;BME280;31345;51.522;10.702;2023-05-20T11:18:47;99601.28;;;18.53;82.09
45621;BME280;31345;51.522;10.702;2023-05-20T11:21:19;99607.56;;;18.42;82.92
45621;BME280;31345;51.522;10.702;2023-05-20T11:23:52;99606.41;;;18.15;82.60
45621;BME280;31345;51.522;10.702;2023-05-20T11:26:24;99604.47;;;18.37;79.84
45621;BME280;31345;51.522;10.702;2023-05-20T11:28:57;99601.81;;;18.47;80.04
45621;BME280;31345;51.522;10.702;2023-05-20T11:31:31;99599.56;;;17.93;80.93
45621;BME280;31345;51.522;10.702;2023-05-20T11:34:03;99601.63;;;17.89;82.14
45621;BME280;31345;51.522;10.702;2023-05-20T11:36:40;99606.75;;;17.81;83.27
45621;BME280;31345;51.522;10.702;2023-05-20T11:39:13;99601.91;;;17.76;85.09
45621;BME280;31345;51.522;10.702;2023-05-20T11:41:46;99599.22;;;17.66;82.60
45621;BME280;31345;51.522;10.702;2023-05-20T11:44:19;99609.31;;;17.51;85.67
45621;BME280;31345;51.522;10.702;2023-05-20T11:46:58;99596.09;;;17.30;85.79
45621;BME280;31345;51.522;10.702;2023-05-20T11:49:38;99602.31;;;17.19;87.70
45621;BME280;31345;51.522;10.702;2023-05-20T11:52:07;99597.50;;;17.24;85.48
45621;BME280;31345;51.522;10.702;2023-05-20T11:54:40;99600.56;;;17.29;84.60
45621;BME280;31345;51.522;10.702;2023-05-20T11:57:12;99594.47;;;17.39;84.90
45621;BME280;31345;51.522;10.702;2023-05-20T11:59:45;99597.75;;;17.21;85.82
45621;BME280;31345;51.522;10.702;2023-05-20T12:02:19;99596.84;;;17.10;87.32
45621;BME280;31345;51.522;10.702;2023-05-20T12:04:52;99590.31;;;16.83;84.54
45621;BME280;31345;51.522;10.702;2023-05-20T12:07:24;99587.19;;;17.21;88.13
45621;BME280;31345;51.522;10.702;2023-05-20T12:09:57;99595.97;;;18.04;85.48
45621;BME280;31345;51.522;10.702;2023-05-20T12:12:29;99590.41;;;18.66;81.77
45621;BME280;31345;51.522;10.702;2023-05-20T12:15:02;99584.69;;;18.71;78.95
45621;BME280;31345;51.522;10.702;2023-05-20T12:17:43;99586.94;;;18.65;80.24
45621;BME280;31345;51.522;10.702;2023-05-20T12:20:20;99582.19;;;18.59;82.30
45621;BME280;31345;51.522;10.702;2023-05-20T12:22:48;99581.50;;;18.37;82.37
45621;BME280;31345;51.522;10.702;2023-05-20T12:25:18;99582.47;;;18.17;80.87
45621;BME280;31345;51.522;10.702;2023-05-20T12:27:51;99577.22;;;17.66;81.02
45621;BME280;31345;51.522;10.702;2023-05-20T12:30:23;99584.91;;;17.69;81.37
45621;BME280;31345;51.522;10.702;2023-05-20T12:32:52;99583.75;;;17.61;82.31
45621;BME280;31345;51.522;10.702;2023-05-20T12:35:35;99583.50;;;17.65;85.55
45621;BME280;31345;51.522;10.702;2023-05-20T12:38:08;99577.69;;;17.08;84.58
45621;BME280;31345;51.522;10.702;2023-05-20T12:40:41;99581.50;;;17.26;84.55
45621;BME280;31345;51.522;10.702;2023-05-20T12:43:14;99577.53;;;17.41;87.41
45621;BME280;31345;51.522;10.702;2023-05-20T12:45:49;99576.44;;;17.13;84.59
45621;BME280;31345;51.522;10.702;2023-05-20T12:48:24;99579.53;;;16.96;85.30
45621;BME280;31345;51.522;10.702;2023-05-20T12:50:58;99578.66;;;16.86;88.71
45621;BME280;31345;51.522;10.702;2023-05-20T12:53:32;99582.06;;;16.55;89.79
45621;BME280;31345;51.522;10.702;2023-05-20T12:56:02;99581.28;;;16.43;87.79
45621;BME280;31345;51.522;10.702;2023-05-20T12:58:30;99575.81;;;16.35;91.70
45621;BME280;31345;51.522;10.702;2023-05-20T13:00:57;99576.38;;;16.39;90.84
45621;BME280;31345;51.522;10.702;2023-05-20T13:03:31;99580.06;;;16.48;91.07
45621;BME280;31345;51.522;10.702;2023-05-20T13:06:04;99571.34;;;16.36;90.33
45621;BME280;31345;51.522;10.702;2023-05-20T13:08:37;99573.00;;;16.48;89.46
45621;BME280;31345;51.522;10.702;2023-05-20T13:11:09;99570.00;;;16.41;90.89
45621;BME280;31345;51.522;10.702;2023-05-20T13:13:37;99574.00;;;16.36;92.66
45621;BME280;31345;51.522;10.702;2023-05-20T13:16:09;99572.94;;;16.38;89.90
45621;BME280;31345;51.522;10.702;2023-05-20T13:18:43;99567.91;;;16.35;90.58
45621;BME280;31345;51.522;10.702;2023-05-20T13:21:16;99569.97;;;16.20;89.62
45621;BME280;31345;51.522;10.702;2023-05-20T13:23:49;99576.06;;;16.20;91.73
45621;BME280;31345;51.522;10.702;2023-05-20T13:26:23;99568.13;;;16.32;92.10
45621;BME280;31345;51.522;10.702;2023-05-20T13:28:51;99570.28;;;16.38;92.45
45621;BME280;31345;51.522;10.702;2023-05-20T13:31:23;99559.97;;;16.35;91.26